Terminal Aerodrome Forecast
Issued by NWS Wichita, KS

Home | Current Version | Previous Version | Graphics & Text | Print | Product List | Glossary On
Versions: 1 2 3 4 5 6 7 8 9 10 11 12 13 14 15 16 17 18
000
FTUS43 KICT 020909 AAB
TAFICT
TAF AMD
KICT 020909Z 0209/0306 05006KT P6SM BKN250
     FM021100 05006KT P6SM FEW009 SCT015 BKN250
     FM021600 05009KT P6SM VCSH SCT025 BKN060
     FM030100 VRB04KT P6SM BKN100=

USA.gov is the U.S. government's official web portal to all federal, state and local government web resources and services.